sensor_id;sensor_type;location;lat;lon;timestamp;temperature;humidity
40023;DHT22;25713;-35.352;149.036;2023-07-13T00:01:28;10.20;87.50
40023;DHT22;25713;-35.352;149.036;2023-07-13T00:04:01;10.20;87.00
40023;DHT22;25713;-35.352;149.036;2023-07-13T00:06:31;10.20;86.80
40023;DHT22;25713;-35.352;149.036;2023-07-13T00:09:00;10.20;86.90
40023;DHT22;25713;-35.352;149.036;2023-07-13T00:11:30;10.20;86.80
40023;DHT22;25713;-35.352;149.036;2023-07-13T00:14:00;10.20;86.70
40023;DHT22;25713;-35.352;149.036;2023-07-13T00:16:30;10.20;86.30
40023;DHT22;25713;-35.352;149.036;2023-07-13T00:19:03;10.10;86.60
40023;DHT22;25713;-35.352;149.036;2023-07-13T00:21:32;10.10;86.90
40023;DHT22;25713;-35.352;149.036;2023-07-13T00:24:02;10.00;87.90
40023;DHT22;25713;-35.352;149.036;2023-07-13T00:26:32;10.00;88.70
40023;DHT22;25713;-35.352;149.036;2023-07-13T00:29:02;10.00;88.50
40023;DHT22;25713;-35.352;149.036;2023-07-13T00:31:32;10.00;88.70
40023;DHT22;25713;-35.352;149.036;2023-07-13T00:34:03;10.00;86.90
40023;DHT22;25713;-35.352;149.036;2023-07-13T00:36:33;10.10;86.80
40023;DHT22;25713;-35.352;149.036;2023-07-13T00:39:03;10.10;86.40
40023;DHT22;25713;-35.352;149.036;2023-07-13T00:41:33;10.10;86.40
40023;DHT22;25713;-35.352;149.036;2023-07-13T00:44:08;10.10;86.40
40023;DHT22;25713;-35.352;149.036;2023-07-13T00:46:38;10.10;86.60
40023;DHT22;25713;-35.352;149.036;2023-07-13T00:49:11;10.10;86.40
40023;DHT22;25713;-35.352;149.036;2023-07-13T00:51:50;10.10;85.70
40023;DHT22;25713;-35.352;149.036;2023-07-13T00:54:32;10.10;86.20
40023;DHT22;25713;-35.352;149.036;2023-07-13T00:57:05;10.00;86.20
40023;DHT22;25713;-35.352;149.036;2023-07-13T00:59:36;10.10;86.60
40023;DHT22;25713;-35.352;149.036;2023-07-13T01:02:10;10.10;86.20
40023;DHT22;25713;-35.352;149.036;2023-07-13T01:04:42;10.10;85.90
40023;DHT22;25713;-35.352;149.036;2023-07-13T01:07:13;10.10;86.10
40023;DHT22;25713;-35.352;149.036;2023-07-13T01:09:43;10.10;86.80
40023;DHT22;25713;-35.352;149.036;2023-07-13T01:12:14;10.10;86.00
40023;DHT22;25713;-35.352;149.036;2023-07-13T01:14:43;10.10;86.00
40023;DHT22;25713;-35.352;149.036;2023-07-13T01:17:13;9.90;87.60
40023;DHT22;25713;-35.352;149.036;2023-07-13T01:19:47;10.00;87.20
40023;DHT22;25713;-35.352;149.036;2023-07-13T01:22:19;10.00;86.80
40023;DHT22;25713;-35.352;149.036;2023-07-13T01:24:48;10.00;86.40
40023;DHT22;25713;-35.352;149.036;2023-07-13T01:27:21;10.00;86.80
40023;DHT22;25713;-35.352;149.036;2023-07-13T01:29:52;10.10;87.30
40023;DHT22;25713;-35.352;149.036;2023-07-13T01:32:23;10.10;86.50
40023;DHT22;25713;-35.352;149.036;2023-07-13T01:34:54;10.10;86.10
40023;DHT22;25713;-35.352;149.036;2023-07-13T01:37:27;10.10;86.10
40023;DHT22;25713;-35.352;149.036;2023-07-13T01:39:57;10.10;86.10
40023;DHT22;25713;-35.352;149.036;2023-07-13T01:42:27;10.10;86.80
40023;DHT22;25713;-35.352;149.036;2023-07-13T01:44:57;10.10;86.80
40023;DHT22;25713;-35.352;149.036;2023-07-13T01:47:26;10.10;87.00
40023;DHT22;25713;-35.352;149.036;2023-07-13T01:49:56;10.10;86.50
40023;DHT22;25713;-35.352;149.036;2023-07-13T01:52:29;10.10;86.80
40023;DHT22;25713;-35.352;149.036;2023-07-13T01:55:01;10.10;86.50
40023;DHT22;25713;-35.352;149.036;2023-07-13T01:57:30;10.20;86.60
40023;DHT22;25713;-35.352;149.036;2023-07-13T02:00:00;10.20;87.10
40023;DHT22;25713;-35.352;149.036;2023-07-13T02:02:30;10.20;87.20
40023;DHT22;25713;-35.352;149.036;2023-07-13T02:05:00;10.30;87.20
40023;DHT22;25713;-35.352;149.036;2023-07-13T02:07:31;10.30;87.20
40023;DHT22;25713;-35.352;149.036;2023-07-13T02:10:01;10.30;88.00
40023;DHT22;25713;-35.352;149.036;2023-07-13T02:12:31;10.40;87.20
40023;DHT22;25713;-35.352;149.036;2023-07-13T02:15:00;10.40;87.60
40023;DHT22;25713;-35.352;149.036;2023-07-13T02:17:30;10.50;88.20
40023;DHT22;25713;-35.352;149.036;2023-07-13T02:19:59;10.50;87.50
40023;DHT22;25713;-35.352;149.036;2023-07-13T02:22:31;10.50;87.30
40023;DHT22;25713;-35.352;149.036;2023-07-13T02:25:01;10.60;87.20
40023;DHT22;25713;-35.352;149.036;2023-07-13T02:27:31;10.60;87.00
40023;DHT22;25713;-35.352;149.036;2023-07-13T02:30:00;10.70;86.90
40023;DHT22;25713;-35.352;149.036;2023-07-13T02:32:30;10.80;86.90
40023;DHT22;25713;-35.352;149.036;2023-07-13T02:34:59;10.80;86.80
40023;DHT22;25713;-35.352;149.036;2023-07-13T02:40:29;10.90;87.80
40023;DHT22;25713;-35.352;149.036;2023-07-13T02:42:59;10.90;87.40
40023;DHT22;25713;-35.352;149.036;2023-07-13T02:45:28;11.00;87.30
40023;DHT22;25713;-35.352;149.036;2023-07-13T02:47:58;10.90;88.00
40023;DHT22;25713;-35.352;149.036;2023-07-13T02:50:27;11.00;87.60
40023;DHT22;25713;-35.352;149.036;2023-07-13T02:52:57;11.00;88.30
40023;DHT22;25713;-35.352;149.036;2023-07-13T02:55:28;11.00;87.90
40023;DHT22;25713;-35.352;149.036;2023-07-13T02:57:58;11.00;88.00
40023;DHT22;25713;-35.352;149.036;2023-07-13T03:00:28;11.10;87.90
40023;DHT22;25713;-35.352;149.036;2023-07-13T03:02:57;11.10;88.10
40023;DHT22;25713;-35.352;149.036;2023-07-13T03:05:28;11.20;87.90
40023;DHT22;25713;-35.352;149.036;2023-07-13T03:07:59;11.20;87.80
40023;DHT22;25713;-35.352;149.036;2023-07-13T03:10:31;11.30;87.70
40023;DHT22;25713;-35.352;149.036;2023-07-13T03:13:02;11.30;87.80
40023;DHT22;25713;-35.352;149.036;2023-07-13T03:15:32;11.40;88.40
40023;DHT22;25713;-35.352;149.036;2023-07-13T03:18:02;11.40;88.00
40023;DHT22;25713;-35.352;149.036;2023-07-13T03:20:34;11.50;88.50
40023;DHT22;25713;-35.352;149.036;2023-07-13T03:23:03;11.50;88.50
40023;DHT22;25713;-35.352;149.036;2023-07-13T03:25:34;11.50;88.90
40023;DHT22;25713;-35.352;149.036;2023-07-13T03:28:03;11.60;88.50
40023;DHT22;25713;-35.352;149.036;2023-07-13T03:30:33;11.60;88.60
40023;DHT22;25713;-35.352;149.036;2023-07-13T03:33:03;11.60;88.60
40023;DHT22;25713;-35.352;149.036;2023-07-13T03:35:33;11.60;88.40
40023;DHT22;25713;-35.352;149.036;2023-07-13T03:38:03;11.60;88.70
40023;DHT22;25713;-35.352;149.036;2023-07-13T03:40:35;11.50;89.00
40023;DHT22;25713;-35.352;149.036;2023-07-13T03:43:06;11.60;89.10
40023;DHT22;25713;-35.352;149.036;2023-07-13T03:45:38;11.60;89.10
40023;DHT22;25713;-35.352;149.036;2023-07-13T03:48:08;11.60;89.20
40023;DHT22;25713;-35.352;149.036;2023-07-13T03:50:38;11.70;89.60
40023;DHT22;25713;-35.352;149.036;2023-07-13T03:53:08;11.70;89.70
40023;DHT22;25713;-35.352;149.036;2023-07-13T03:55:40;11.80;89.40
40023;DHT22;25713;-35.352;149.036;2023-07-13T03:58:28;11.80;89.80
40023;DHT22;25713;-35.352;149.036;2023-07-13T04:01:03;11.90;89.60
40023;DHT22;25713;-35.352;149.036;2023-07-13T04:03:33;12.00;89.50
40023;DHT22;25713;-35.352;149.036;2023-07-13T04:06:05;11.90;89.40
40023;DHT22;25713;-35.352;149.036;2023-07-13T04:08:35;11.90;89.50
40023;DHT22;25713;-35.352;149.036;2023-07-13T04:11:08;12.00;89.50
40023;DHT22;25713;-35.352;149.036;2023-07-13T04:13:38;12.00;89.30
40023;DHT22;25713;-35.352;149.036;2023-07-13T04:16:07;12.00;89.10
40023;DHT22;25713;-35.352;149.036;2023-07-13T04:18:37;12.00;89.30
40023;DHT22;25713;-35.352;149.036;2023-07-13T04:21:09;12.10;89.70
40023;DHT22;25713;-35.352;149.036;2023-07-13T04:23:40;12.10;89.30
40023;DHT22;25713;-35.352;149.036;2023-07-13T04:26:13;12.10;89.10
40023;DHT22;25713;-35.352;149.036;2023-07-13T04:28:44;12.20;89.90
40023;DHT22;25713;-35.352;149.036;2023-07-13T04:31:13;12.20;89.90
40023;DHT22;25713;-35.352;149.036;2023-07-13T04:33:44;12.30;89.90
40023;DHT22;25713;-35.352;149.036;2023-07-13T04:36:14;12.20;90.00
40023;DHT22;25713;-35.352;149.036;2023-07-13T04:38:45;12.30;90.00
40023;DHT22;25713;-35.352;149.036;2023-07-13T04:41:17;12.30;90.20
40023;DHT22;25713;-35.352;149.036;2023-07-13T04:43:47;12.40;89.80
40023;DHT22;25713;-35.352;149.036;2023-07-13T04:46:18;12.30;89.60
40023;DHT22;25713;-35.352;149.036;2023-07-13T04:48:50;12.40;89.00
40023;DHT22;25713;-35.352;149.036;2023-07-13T04:51:20;12.40;88.70
40023;DHT22;25713;-35.352;149.036;2023-07-13T04:53:50;12.40;88.60
40023;DHT22;25713;-35.352;149.036;2023-07-13T04:56:22;12.40;88.50
40023;DHT22;25713;-35.352;149.036;2023-07-13T04:58:52;12.40;88.40
40023;DHT22;25713;-35.352;149.036;2023-07-13T05:01:22;12.50;88.40
40023;DHT22;25713;-35.352;149.036;2023-07-13T05:03:52;12.50;88.70
40023;DHT22;25713;-35.352;149.036;2023-07-13T05:06:22;12.50;88.50
40023;DHT22;25713;-35.352;149.036;2023-07-13T05:08:52;12.50;88.60
40023;DHT22;25713;-35.352;149.036;2023-07-13T05:11:24;12.50;88.80
40023;DHT22;25713;-35.352;149.036;2023-07-13T05:13:54;12.60;88.80
40023;DHT22;25713;-35.352;149.036;2023-07-13T05:16:24;12.50;88.40
40023;DHT22;25713;-35.352;149.036;2023-07-13T05:18:54;12.50;87.50
40023;DHT22;25713;-35.352;149.036;2023-07-13T05:21:24;12.50;88.30
40023;DHT22;25713;-35.352;149.036;2023-07-13T05:23:53;12.50;88.50
40023;DHT22;25713;-35.352;149.036;2023-07-13T05:26:25;12.60;88.60
40023;DHT22;25713;-35.352;149.036;2023-07-13T05:28:55;12.60;88.30
40023;DHT22;25713;-35.352;149.036;2023-07-13T05:31:25;12.60;88.40
40023;DHT22;25713;-35.352;149.036;2023-07-13T05:33:55;12.60;88.20
40023;DHT22;25713;-35.352;149.036;2023-07-13T05:36:24;12.60;87.40
40023;DHT22;25713;-35.352;149.036;2023-07-13T05:38:54;12.60;86.90
40023;DHT22;25713;-35.352;149.036;2023-07-13T05:41:27;12.60;87.30
40023;DHT22;25713;-35.352;149.036;2023-07-13T05:43:57;12.60;86.80
40023;DHT22;25713;-35.352;149.036;2023-07-13T05:46:27;12.60;87.20
40023;DHT22;25713;-35.352;149.036;2023-07-13T05:48:57;12.60;87.40
40023;DHT22;25713;-35.352;149.036;2023-07-13T05:51:27;12.60;87.10
40023;DHT22;25713;-35.352;149.036;2023-07-13T05:53:57;12.60;87.30
40023;DHT22;25713;-35.352;149.036;2023-07-13T05:56:30;12.60;86.60
40023;DHT22;25713;-35.352;149.036;2023-07-13T05:58:59;12.50;85.80
40023;DHT22;25713;-35.352;149.036;2023-07-13T06:01:29;12.50;86.20
40023;DHT22;25713;-35.352;149.036;2023-07-13T06:03:59;12.50;86.90
40023;DHT22;25713;-35.352;149.036;2023-07-13T06:06:29;12.50;86.80
40023;DHT22;25713;-35.352;149.036;2023-07-13T06:08:59;12.50;86.30
40023;DHT22;25713;-35.352;149.036;2023-07-13T06:11:31;12.50;86.60
40023;DHT22;25713;-35.352;149.036;2023-07-13T06:14:02;12.40;86.00
40023;DHT22;25713;-35.352;149.036;2023-07-13T06:16:31;12.50;86.80
40023;DHT22;25713;-35.352;149.036;2023-07-13T06:19:01;12.50;86.80
40023;DHT22;25713;-35.352;149.036;2023-07-13T06:21:30;12.50;86.90
40023;DHT22;25713;-35.352;149.036;2023-07-13T06:24:00;12.40;86.90
40023;DHT22;25713;-35.352;149.036;2023-07-13T06:26:34;12.40;87.20
40023;DHT22;25713;-35.352;149.036;2023-07-13T06:29:04;12.50;87.10
40023;DHT22;25713;-35.352;149.036;2023-07-13T06:31:33;12.40;87.80
40023;DHT22;25713;-35.352;149.036;2023-07-13T06:34:03;12.40;87.20
40023;DHT22;25713;-35.352;149.036;2023-07-13T06:36:33;12.40;87.70
40023;DHT22;25713;-35.352;149.036;2023-07-13T06:39:02;12.40;87.70
40023;DHT22;25713;-35.352;149.036;2023-07-13T06:41:35;12.40;87.80
40023;DHT22;25713;-35.352;149.036;2023-07-13T06:44:05;12.40;87.40
40023;DHT22;25713;-35.352;149.036;2023-07-13T06:46:35;12.40;87.50
40023;DHT22;25713;-35.352;149.036;2023-07-13T06:49:04;12.30;87.50
40023;DHT22;25713;-35.352;149.036;2023-07-13T06:51:34;12.30;87.60
40023;DHT22;25713;-35.352;149.036;2023-07-13T06:54:04;12.30;88.10
40023;DHT22;25713;-35.352;149.036;2023-07-13T06:56:37;12.30;88.30
40023;DHT22;25713;-35.352;149.036;2023-07-13T06:59:07;12.30;88.10
40023;DHT22;25713;-35.352;149.036;2023-07-13T07:01:36;12.30;88.60
40023;DHT22;25713;-35.352;149.036;2023-07-13T07:04:06;12.30;89.10
40023;DHT22;25713;-35.352;149.036;2023-07-13T07:06:35;12.20;87.50
40023;DHT22;25713;-35.352;149.036;2023-07-13T07:09:05;12.20;88.40
40023;DHT22;25713;-35.352;149.036;2023-07-13T07:11:38;12.20;87.80
40023;DHT22;25713;-35.352;149.036;2023-07-13T07:14:08;12.20;89.50
40023;DHT22;25713;-35.352;149.036;2023-07-13T07:16:38;12.20;89.80
40023;DHT22;25713;-35.352;149.036;2023-07-13T07:19:08;12.20;89.00
40023;DHT22;25713;-35.352;149.036;2023-07-13T07:21:37;12.20;88.80
40023;DHT22;25713;-35.352;149.036;2023-07-13T07:24:07;12.20;87.90
40023;DHT22;25713;-35.352;149.036;2023-07-13T07:29:43;12.10;87.80
40023;DHT22;25713;-35.352;149.036;2023-07-13T07:32:13;12.10;88.70
40023;DHT22;25713;-35.352;149.036;2023-07-13T07:34:42;12.10;88.90
40023;DHT22;25713;-35.352;149.036;2023-07-13T07:37:13;12.10;88.80
40023;DHT22;25713;-35.352;149.036;2023-07-13T07:39:44;12.10;89.10
40023;DHT22;25713;-35.352;149.036;2023-07-13T07:42:14;12.10;88.80
40023;DHT22;25713;-35.352;149.036;2023-07-13T07:44:47;12.10;88.40
40023;DHT22;25713;-35.352;149.036;2023-07-13T07:47:16;12.10;88.10
40023;DHT22;25713;-35.352;149.036;2023-07-13T07:49:46;12.10;88.70
40023;DHT22;25713;-35.352;149.036;2023-07-13T07:52:15;12.10;88.70
40023;DHT22;25713;-35.352;149.036;2023-07-13T07:54:45;12.10;89.00
40023;DHT22;25713;-35.352;149.036;2023-07-13T07:57:15;12.10;88.10
40023;DHT22;25713;-35.352;149.036;2023-07-13T07:59:46;12.10;88.30
40023;DHT22;25713;-35.352;149.036;2023-07-13T08:02:16;12.10;88.60
40023;DHT22;25713;-35.352;149.036;2023-07-13T08:04:46;12.00;88.30
40023;DHT22;25713;-35.352;149.036;2023-07-13T08:07:15;12.00;88.20
40023;DHT22;25713;-35.352;149.036;2023-07-13T08:09:44;12.00;88.50
40023;DHT22;25713;-35.352;149.036;2023-07-13T08:12:14;12.00;88.40
40023;DHT22;25713;-35.352;149.036;2023-07-13T08:14:47;12.00;88.30
40023;DHT22;25713;-35.352;149.036;2023-07-13T08:17:18;12.00;87.80
40023;DHT22;25713;-35.352;149.036;2023-07-13T08:19:48;12.00;87.90
40023;DHT22;25713;-35.352;149.036;2023-07-13T08:22:18;12.00;87.90
40023;DHT22;25713;-35.352;149.036;2023-07-13T08:24:47;12.00;88.50
40023;DHT22;25713;-35.352;149.036;2023-07-13T08:27:17;12.00;88.80
40023;DHT22;25713;-35.352;149.036;2023-07-13T08:29:48;12.00;88.50
40023;DHT22;25713;-35.352;149.036;2023-07-13T08:32:19;12.00;88.80
40023;DHT22;25713;-35.352;149.036;2023-07-13T08:34:49;12.00;88.50
40023;DHT22;25713;-35.352;149.036;2023-07-13T08:37:18;12.00;88.30
40023;DHT22;25713;-35.352;149.036;2023-07-13T08:39:48;12.00;88.30
40023;DHT22;25713;-35.352;149.036;2023-07-13T08:42:27;12.00;88.30
40023;DHT22;25713;-35.352;149.036;2023-07-13T08:45:11;12.00;88.40
40023;DHT22;25713;-35.352;149.036;2023-07-13T08:47:44;12.00;88.10
40023;DHT22;25713;-35.352;149.036;2023-07-13T08:50:17;12.00;88.50
40023;DHT22;25713;-35.352;149.036;2023-07-13T08:52:47;12.00;88.50
40023;DHT22;25713;-35.352;149.036;2023-07-13T08:55:20;12.00;88.40
40023;DHT22;25713;-35.352;149.036;2023-07-13T08:57:54;11.90;88.10
40023;DHT22;25713;-35.352;149.036;2023-07-13T09:03:22;11.90;87.70
40023;DHT22;25713;-35.352;149.036;2023-07-13T09:05:54;11.90;87.60
40023;DHT22;25713;-35.352;149.036;2023-07-13T09:08:45;11.90;87.60
40023;DHT22;25713;-35.352;149.036;2023-07-13T09:11:28;11.90;87.60
40023;DHT22;25713;-35.352;149.036;2023-07-13T09:14:06;11.90;87.20
40023;DHT22;25713;-35.352;149.036;2023-07-13T09:16:46;11.90;87.60
40023;DHT22;25713;-35.352;149.036;2023-07-13T09:19:21;11.90;87.20
40023;DHT22;25713;-35.352;149.036;2023-07-13T09:21:52;11.90;87.40
40023;DHT22;25713;-35.352;149.036;2023-07-13T09:24:35;11.90;87.40
40023;DHT22;25713;-35.352;149.036;2023-07-13T09:27:14;11.90;87.10
40023;DHT22;25713;-35.352;149.036;2023-07-13T09:29:50;11.90;87.40
40023;DHT22;25713;-35.352;149.036;2023-07-13T09:32:26;11.90;87.30
40023;DHT22;25713;-35.352;149.036;2023-07-13T09:34:56;11.90;87.30
40023;DHT22;25713;-35.352;149.036;2023-07-13T09:37:33;11.90;86.90
40023;DHT22;25713;-35.352;149.036;2023-07-13T09:40:03;11.90;86.80
40023;DHT22;25713;-35.352;149.036;2023-07-13T09:42:34;11.80;86.60
40023;DHT22;25713;-35.352;149.036;2023-07-13T09:45:04;11.80;86.80
40023;DHT22;25713;-35.352;149.036;2023-07-13T09:47:40;11.80;86.70
40023;DHT22;25713;-35.352;149.036;2023-07-13T09:50:14;11.80;86.70
40023;DHT22;25713;-35.352;149.036;2023-07-13T09:52:45;11.80;86.10
40023;DHT22;25713;-35.352;149.036;2023-07-13T09:55:26;11.80;86.30
40023;DHT22;25713;-35.352;149.036;2023-07-13T09:57:59;11.80;86.30
40023;DHT22;25713;-35.352;149.036;2023-07-13T10:00:31;11.80;86.10
40023;DHT22;25713;-35.352;149.036;2023-07-13T10:03:19;11.80;86.60
40023;DHT22;25713;-35.352;149.036;2023-07-13T10:05:50;11.80;86.30
40023;DHT22;25713;-35.352;149.036;2023-07-13T10:08:23;11.80;86.50
40023;DHT22;25713;-35.352;149.036;2023-07-13T10:10:59;11.80;86.10
40023;DHT22;25713;-35.352;149.036;2023-07-13T10:13:32;11.80;85.90
40023;DHT22;25713;-35.352;149.036;2023-07-13T10:16:03;11.80;86.20
40023;DHT22;25713;-35.352;149.036;2023-07-13T10:18:39;11.80;86.00
40023;DHT22;25713;-35.352;149.036;2023-07-13T10:21:16;11.70;85.90
40023;DHT22;25713;-35.352;149.036;2023-07-13T10:23:50;11.70;85.80
40023;DHT22;25713;-35.352;149.036;2023-07-13T10:26:23;11.70;85.90
40023;DHT22;25713;-35.352;149.036;2023-07-13T10:28:56;11.70;85.90
40023;DHT22;25713;-35.352;149.036;2023-07-13T10:31:28;11.70;85.90
40023;DHT22;25713;-35.352;149.036;2023-07-13T10:34:02;11.70;85.60
40023;DHT22;25713;-35.352;149.036;2023-07-13T10:36:35;11.60;85.60
40023;DHT22;25713;-35.352;149.036;2023-07-13T10:39:10;11.70;85.40
40023;DHT22;25713;-35.352;149.036;2023-07-13T10:41:44;11.70;85.20
40023;DHT22;25713;-35.352;149.036;2023-07-13T10:44:21;11.70;85.40
40023;DHT22;25713;-35.352;149.036;2023-07-13T10:46:51;11.70;85.30
40023;DHT22;25713;-35.352;149.036;2023-07-13T10:49:25;11.60;85.10
40023;DHT22;25713;-35.352;149.036;2023-07-13T10:51:55;11.70;85.50
40023;DHT22;25713;-35.352;149.036;2023-07-13T10:54:31;11.60;84.90
40023;DHT22;25713;-35.352;149.036;2023-07-13T10:57:18;11.60;85.40
40023;DHT22;25713;-35.352;149.036;2023-07-13T10:59:49;11.60;85.40
40023;DHT22;25713;-35.352;149.036;2023-07-13T11:02:38;11.60;85.20
40023;DHT22;25713;-35.352;149.036;2023-07-13T11:05:26;11.60;85.00
40023;DHT22;25713;-35.352;149.036;2023-07-13T11:08:03;11.60;84.80
40023;DHT22;25713;-35.352;149.036;2023-07-13T11:10:51;11.60;85.00
40023;DHT22;25713;-35.352;149.036;2023-07-13T11:13:57;11.60;84.80
40023;DHT22;25713;-35.352;149.036;2023-07-13T11:16:39;11.60;84.70
40023;DHT22;25713;-35.352;149.036;2023-07-13T11:19:37;11.50;84.50
40023;DHT22;25713;-35.352;149.036;2023-07-13T11:25:32;11.50;84.00
40023;DHT22;25713;-35.352;149.036;2023-07-13T11:28:23;11.50;83.90
40023;DHT22;25713;-35.352;149.036;2023-07-13T11:31:04;11.50;83.80
40023;DHT22;25713;-35.352;149.036;2023-07-13T11:34:02;11.50;83.90
40023;DHT22;25713;-35.352;149.036;2023-07-13T11:36:36;11.50;84.10
40023;DHT22;25713;-35.352;149.036;2023-07-13T11:39:18;11.50;83.60
40023;DHT22;25713;-35.352;149.036;2023-07-13T11:41:53;11.50;84.00
40023;DHT22;25713;-35.352;149.036;2023-07-13T11:44:24;11.50;84.20
40023;DHT22;25713;-35.352;149.036;2023-07-13T11:46:55;11.50;83.60
40023;DHT22;25713;-35.352;149.036;2023-07-13T11:49:30;11.40;83.60
40023;DHT22;25713;-35.352;149.036;2023-07-13T11:52:00;11.50;84.10
40023;DHT22;25713;-35.352;149.036;2023-07-13T11:54:31;11.50;84.00
40023;DHT22;25713;-35.352;149.036;2023-07-13T11:57:13;11.40;83.90
40023;DHT22;25713;-35.352;149.036;2023-07-13T11:59:48;11.40;83.30
40023;DHT22;25713;-35.352;149.036;2023-07-13T12:02:25;11.40;83.70
40023;DHT22;25713;-35.352;149.036;2023-07-13T12:04:57;11.40;83.30
40023;DHT22;25713;-35.352;149.036;2023-07-13T12:07:30;11.40;83.40
40023;DHT22;25713;-35.352;149.036;2023-07-13T12:10:02;11.40;83.30
40023;DHT22;25713;-35.352;149.036;2023-07-13T12:12:35;11.40;83.50
40023;DHT22;25713;-35.352;149.036;2023-07-13T12:15:07;11.40;83.50
40023;DHT22;25713;-35.352;149.036;2023-07-13T12:17:37;11.40;83.80
40023;DHT22;25713;-35.352;149.036;2023-07-13T12:20:21;11.40;83.50
40023;DHT22;25713;-35.352;149.036;2023-07-13T12:22:53;11.40;83.50
40023;DHT22;25713;-35.352;149.036;2023-07-13T12:25:23;11.40;83.80
40023;DHT22;25713;-35.352;149.036;2023-07-13T12:27:56;11.30;83.80
40023;DHT22;25713;-35.352;149.036;2023-07-13T12:30:28;11.40;83.30
40023;DHT22;25713;-35.352;149.036;2023-07-13T12:33:01;11.30;83.30
40023;DHT22;25713;-35.352;149.036;2023-07-13T12:35:31;11.30;85.00
40023;DHT22;25713;-35.352;149.036;2023-07-13T12:38:02;11.30;84.40
40023;DHT22;25713;-35.352;149.036;2023-07-13T12:40:34;11.30;84.50
40023;DHT22;25713;-35.352;149.036;2023-07-13T12:43:10;11.20;84.40
40023;DHT22;25713;-35.352;149.036;2023-07-13T12:45:40;11.20;84.50
40023;DHT22;25713;-35.352;149.036;2023-07-13T12:48:23;11.20;84.70
40023;DHT22;25713;-35.352;149.036;2023-07-13T12:50:55;11.20;84.50
40023;DHT22;25713;-35.352;149.036;2023-07-13T12:53:29;11.20;85.00
40023;DHT22;25713;-35.352;149.036;2023-07-13T12:56:01;11.20;85.00
40023;DHT22;25713;-35.352;149.036;2023-07-13T12:58:38;11.20;84.30
40023;DHT22;25713;-35.352;149.036;2023-07-13T13:01:09;11.10;86.40
40023;DHT22;25713;-35.352;149.036;2023-07-13T13:03:41;11.10;85.50
40023;DHT22;25713;-35.352;149.036;2023-07-13T13:06:23;11.10;85.80
40023;DHT22;25713;-35.352;149.036;2023-07-13T13:08:54;11.10;84.90
40023;DHT22;25713;-35.352;149.036;2023-07-13T13:11:25;11.10;85.10
40023;DHT22;25713;-35.352;149.036;2023-07-13T13:13:59;11.10;85.10
40023;DHT22;25713;-35.352;149.036;2023-07-13T13:16:32;11.10;85.20
40023;DHT22;25713;-35.352;149.036;2023-07-13T13:19:13;11.10;85.60
40023;DHT22;25713;-35.352;149.036;2023-07-13T13:21:45;11.10;85.30
40023;DHT22;25713;-35.352;149.036;2023-07-13T13:24:17;11.10;85.20
40023;DHT22;25713;-35.352;149.036;2023-07-13T13:26:47;11.10;84.70
40023;DHT22;25713;-35.352;149.036;2023-07-13T13:29:22;11.10;84.50
40023;DHT22;25713;-35.352;149.036;2023-07-13T13:31:52;11.10;84.80
40023;DHT22;25713;-35.352;149.036;2023-07-13T13:34:24;11.10;85.60
40023;DHT22;25713;-35.352;149.036;2023-07-13T13:36:54;11.10;84.60
40023;DHT22;25713;-35.352;149.036;2023-07-13T13:39:25;11.10;84.20
40023;DHT22;25713;-35.352;149.036;2023-07-13T13:41:57;11.10;84.00
40023;DHT22;25713;-35.352;149.036;2023-07-13T13:44:29;11.10;83.70
40023;DHT22;25713;-35.352;149.036;2023-07-13T13:46:59;11.10;84.00
40023;DHT22;25713;-35.352;149.036;2023-07-13T13:49:29;11.10;83.90
40023;DHT22;25713;-35.352;149.036;2023-07-13T13:51:59;11.20;83.80
40023;DHT22;25713;-35.352;149.036;2023-07-13T13:54:29;11.10;84.00
40023;DHT22;25713;-35.352;149.036;2023-07-13T13:56:58;11.20;83.70
40023;DHT22;25713;-35.352;149.036;2023-07-13T13:59:31;11.20;83.80
40023;DHT22;25713;-35.352;149.036;2023-07-13T14:02:01;11.20;84.10
40023;DHT22;25713;-35.352;149.036;2023-07-13T14:04:30;11.10;83.70
40023;DHT22;25713;-35.352;149.036;2023-07-13T14:07:00;11.20;83.60
40023;DHT22;25713;-35.352;149.036;2023-07-13T14:09:29;11.20;83.90
40023;DHT22;25713;-35.352;149.036;2023-07-13T14:11:59;11.20;84.10
40023;DHT22;25713;-35.352;149.036;2023-07-13T14:14:31;11.20;84.00
40023;DHT22;25713;-35.352;149.036;2023-07-13T14:17:01;11.20;83.80
40023;DHT22;25713;-35.352;149.036;2023-07-13T14:19:31;11.20;84.00
40023;DHT22;25713;-35.352;149.036;2023-07-13T14:22:01;11.20;84.80
40023;DHT22;25713;-35.352;149.036;2023-07-13T14:24:30;11.10;84.30
40023;DHT22;25713;-35.352;149.036;2023-07-13T14:27:00;11.20;84.70
40023;DHT22;25713;-35.352;149.036;2023-07-13T14:29:33;11.10;85.20
40023;DHT22;25713;-35.352;149.036;2023-07-13T14:32:01;11.10;85.30
40023;DHT22;25713;-35.352;149.036;2023-07-13T14:34:30;11.10;84.30
40023;DHT22;25713;-35.352;149.036;2023-07-13T14:37:00;11.20;85.20
40023;DHT22;25713;-35.352;149.036;2023-07-13T14:39:30;11.10;85.00
40023;DHT22;25713;-35.352;149.036;2023-07-13T14:41:59;11.10;85.10
40023;DHT22;25713;-35.352;149.036;2023-07-13T14:44:32;11.10;85.00
40023;DHT22;25713;-35.352;149.036;2023-07-13T14:47:03;11.10;85.10
40023;DHT22;25713;-35.352;149.036;2023-07-13T16:00:34;10.60;89.70
40023;DHT22;25713;-35.352;149.036;2023-07-13T16:03:04;10.70;88.40
40023;DHT22;25713;-35.352;149.036;2023-07-13T16:05:34;10.70;88.40
40023;DHT22;25713;-35.352;149.036;2023-07-13T16:08:03;10.80;87.40
40023;DHT22;25713;-35.352;149.036;2023-07-13T16:10:36;10.80;87.80
40023;DHT22;25713;-35.352;149.036;2023-07-13T16:13:05;10.80;86.50
40023;DHT22;25713;-35.352;149.036;2023-07-13T16:15:42;10.80;86.30
40023;DHT22;25713;-35.352;149.036;2023-07-13T16:18:12;10.80;86.90
40023;DHT22;25713;-35.352;149.036;2023-07-13T16:20:41;10.80;86.20
40023;DHT22;25713;-35.352;149.036;2023-07-13T16:23:12;10.80;86.60
40023;DHT22;25713;-35.352;149.036;2023-07-13T16:25:42;10.80;87.00
40023;DHT22;25713;-35.352;149.036;2023-07-13T16:28:12;10.90;87.80
40023;DHT22;25713;-35.352;149.036;2023-07-13T16:30:45;10.80;88.00
40023;DHT22;25713;-35.352;149.036;2023-07-13T16:33:15;10.80;87.70
40023;DHT22;25713;-35.352;149.036;2023-07-13T16:35:44;10.80;88.30
40023;DHT22;25713;-35.352;149.036;2023-07-13T16:38:16;10.80;87.70
40023;DHT22;25713;-35.352;149.036;2023-07-13T16:40:46;10.80;88.20